Main page
METAR-TAF:

METAR-TAF

Airports :

Clermont-Ferrand Auvergne Airport

Clermont-Ferrand, France

latitude: 45-47N, longitude: 003-10E, elevation: 332 m

Current weather observation

The report was made 29 minutes ago, at 23:30 UTC
Wind 2 kt from variable directions
Temperature 4°C
Humidity 93%
Pressure 1010 hPa
Visibility 10 km or more
Overcast at a height of 3000 ft

METAR: LFLC 172330Z AUTO VRB02KT 9999 OVC030 04/03 Q1010 NOSIG

Time: 00:59 (23:59 UTC)

Forecast

The report was made 3 hours and 59 minutes ago, at 20:00 UTC
Forecast valid from 17 at 21 UTC to 18 at 21 UTC
Wind 4 kt from the North/Northwest
Visibility 10 km or more
Broken clouds at a height of 2500 ft
Becoming
from 18 at 12 UTC to 18 at 14 UTC
Wind 8 kt from the North

TAF: LFLC 172000Z 1721/1821 34004KT 9999 BKN025 BECMG 1812/1814 36008KT

Weather observations and forecasts of more than 4000 airports (METAR and TAF reports).

The available stations are represented by yellow and red dots on the map.

Hover mouse over dot to see the name of the station.

Then click to see weather observations and forecasts.

To change the map : click on the green buttons with a black cross to zoom in, on the green button with a dash to zoom out, or on the green arrows for adjacent maps.


METAR-TAF: